sensor_id;sensor_type;location;lat;lon;timestamp;temperature;humidity
66128;DHT22;52925;52.436;-1.952;2023-12-20T05:26:32;8.70;99.90
66128;DHT22;52925;52.436;-1.952;2023-12-20T05:27:53;8.60;99.90
66128;DHT22;52925;52.436;-1.952;2023-12-20T05:29:14;8.60;99.90
66128;DHT22;52925;52.436;-1.952;2023-12-20T05:30:35;8.60;99.90
66128;DHT22;52925;52.436;-1.952;2023-12-20T05:31:55;8.60;99.90
66128;DHT22;52925;52.436;-1.952;2023-12-20T05:33:16;8.60;99.90
66128;DHT22;52925;52.436;-1.952;2023-12-20T05:34:36;8.60;99.90
66128;DHT22;52925;52.436;-1.952;2023-12-20T05:35:57;8.60;99.90
66128;DHT22;52925;52.436;-1.952;2023-12-20T05:37:18;8.60;99.90
66128;DHT22;52925;52.436;-1.952;2023-12-20T05:38:39;8.60;99.90
66128;DHT22;52925;52.436;-1.952;2023-12-20T05:39:59;8.60;99.90
66128;DHT22;52925;52.436;-1.952;2023-12-20T05:41:20;8.60;99.90
66128;DHT22;52925;52.436;-1.952;2023-12-20T05:42:42;8.60;99.90
66128;DHT22;52925;52.436;-1.952;2023-12-20T05:44:04;8.60;99.90
66128;DHT22;52925;52.436;-1.952;2023-12-20T05:45:24;8.50;99.90
66128;DHT22;52925;52.436;-1.952;2023-12-20T05:46:45;8.50;99.90
66128;DHT22;52925;52.436;-1.952;2023-12-20T05:48:05;8.50;99.90
66128;DHT22;52925;52.436;-1.952;2023-12-20T05:49:27;8.60;99.90
66128;DHT22;52925;52.436;-1.952;2023-12-20T05:50:47;8.60;99.90
66128;DHT22;52925;52.436;-1.952;2023-12-20T05:52:08;8.70;99.90
66128;DHT22;52925;52.436;-1.952;2023-12-20T05:53:28;8.60;99.90
66128;DHT22;52925;52.436;-1.952;2023-12-20T05:54:50;8.60;99.90
66128;DHT22;52925;52.436;-1.952;2023-12-20T05:56:10;8.60;99.90
66128;DHT22;52925;52.436;-1.952;2023-12-20T05:57:31;8.60;99.90
66128;DHT22;52925;52.436;-1.952;2023-12-20T05:58:53;8.60;99.90
66128;DHT22;52925;52.436;-1.952;2023-12-20T06:00:15;8.70;99.90
66128;DHT22;52925;52.436;-1.952;2023-12-20T06:01:35;8.60;99.90
66128;DHT22;52925;52.436;-1.952;2023-12-20T06:02:56;8.60;99.90
66128;DHT22;52925;52.436;-1.952;2023-12-20T06:04:16;8.60;99.90
66128;DHT22;52925;52.436;-1.952;2023-12-20T06:05:37;8.60;99.90
66128;DHT22;52925;52.436;-1.952;2023-12-20T06:06:57;8.60;99.90
66128;DHT22;52925;52.436;-1.952;2023-12-20T06:08:19;8.60;99.90
66128;DHT22;52925;52.436;-1.952;2023-12-20T06:09:38;8.60;99.90
66128;DHT22;52925;52.436;-1.952;2023-12-20T06:10:59;8.60;99.90
66128;DHT22;52925;52.436;-1.952;2023-12-20T06:12:20;8.60;99.90
66128;DHT22;52925;52.436;-1.952;2023-12-20T06:13:41;8.70;99.90
66128;DHT22;52925;52.436;-1.952;2023-12-20T06:15:02;8.70;99.90
66128;DHT22;52925;52.436;-1.952;2023-12-20T06:16:23;8.70;99.90
66128;DHT22;52925;52.436;-1.952;2023-12-20T06:17:43;8.70;99.90
66128;DHT22;52925;52.436;-1.952;2023-12-20T06:19:06;8.70;99.90
66128;DHT22;52925;52.436;-1.952;2023-12-20T06:20:26;8.60;99.90
66128;DHT22;52925;52.436;-1.952;2023-12-20T06:21:48;8.60;99.90
66128;DHT22;52925;52.436;-1.952;2023-12-20T06:23:07;8.70;99.90
66128;DHT22;52925;52.436;-1.952;2023-12-20T06:24:29;8.60;99.90
66128;DHT22;52925;52.436;-1.952;2023-12-20T06:25:49;8.70;99.90
66128;DHT22;52925;52.436;-1.952;2023-12-20T06:27:10;8.60;99.90
66128;DHT22;52925;52.436;-1.952;2023-12-20T06:28:30;8.70;99.90
66128;DHT22;52925;52.436;-1.952;2023-12-20T06:29:52;8.70;99.90
66128;DHT22;52925;52.436;-1.952;2023-12-20T06:31:13;8.70;99.90
66128;DHT22;52925;52.436;-1.952;2023-12-20T06:32:34;8.70;99.90
66128;DHT22;52925;52.436;-1.952;2023-12-20T06:33:54;8.70;99.90
66128;DHT22;52925;52.436;-1.952;2023-12-20T06:35:17;8.70;99.90
66128;DHT22;52925;52.436;-1.952;2023-12-20T06:36:37;8.70;99.90
66128;DHT22;52925;52.436;-1.952;2023-12-20T06:37:58;8.70;99.90
66128;DHT22;52925;52.436;-1.952;2023-12-20T06:39:18;8.60;99.90
66128;DHT22;52925;52.436;-1.952;2023-12-20T06:40:38;8.70;99.90
66128;DHT22;52925;52.436;-1.952;2023-12-20T06:41:58;8.70;99.90
66128;DHT22;52925;52.436;-1.952;2023-12-20T06:43:19;8.60;99.90
66128;DHT22;52925;52.436;-1.952;2023-12-20T06:44:39;8.70;99.90
66128;DHT22;52925;52.436;-1.952;2023-12-20T06:46:00;8.70;99.90
66128;DHT22;52925;52.436;-1.952;2023-12-20T06:47:22;8.70;99.90
66128;DHT22;52925;52.436;-1.952;2023-12-20T06:48:43;8.70;99.90
66128;DHT22;52925;52.436;-1.952;2023-12-20T06:50:03;8.70;99.90
66128;DHT22;52925;52.436;-1.952;2023-12-20T06:51:24;8.60;99.90
66128;DHT22;52925;52.436;-1.952;2023-12-20T06:52:45;8.70;99.90
66128;DHT22;52925;52.436;-1.952;2023-12-20T06:54:06;8.70;99.90
66128;DHT22;52925;52.436;-1.952;2023-12-20T06:55:26;8.70;99.90
66128;DHT22;52925;52.436;-1.952;2023-12-20T06:56:47;8.70;99.90
66128;DHT22;52925;52.436;-1.952;2023-12-20T06:58:07;8.70;99.90
66128;DHT22;52925;52.436;-1.952;2023-12-20T06:59:28;8.70;99.90
66128;DHT22;52925;52.436;-1.952;2023-12-20T07:00:48;8.60;99.90
66128;DHT22;52925;52.436;-1.952;2023-12-20T07:02:08;8.70;99.90
66128;DHT22;52925;52.436;-1.952;2023-12-20T07:03:30;8.70;99.90
66128;DHT22;52925;52.436;-1.952;2023-12-20T07:04:50;8.70;99.90
66128;DHT22;52925;52.436;-1.952;2023-12-20T07:06:10;8.70;99.90
66128;DHT22;52925;52.436;-1.952;2023-12-20T07:07:31;8.70;99.90
66128;DHT22;52925;52.436;-1.952;2023-12-20T07:08:52;8.70;99.90
66128;DHT22;52925;52.436;-1.952;2023-12-20T07:10:13;8.70;99.90
66128;DHT22;52925;52.436;-1.952;2023-12-20T07:11:33;8.70;99.90
66128;DHT22;52925;52.436;-1.952;2023-12-20T07:12:54;8.70;99.90
66128;DHT22;52925;52.436;-1.952;2023-12-20T07:14:14;8.70;99.90
66128;DHT22;52925;52.436;-1.952;2023-12-20T07:15:35;8.70;99.90
66128;DHT22;52925;52.436;-1.952;2023-12-20T07:16:56;8.70;99.90
66128;DHT22;52925;52.436;-1.952;2023-12-20T18:07:28;10.10;99.90
66128;DHT22;52925;52.436;-1.952;2023-12-20T18:09:17;10.10;99.90
66128;DHT22;52925;52.436;-1.952;2023-12-20T18:10:38;10.10;99.90
66128;DHT22;52925;52.436;-1.952;2023-12-20T18:11:58;10.20;99.90
66128;DHT22;52925;52.436;-1.952;2023-12-20T18:13:20;10.20;99.90
66128;DHT22;52925;52.436;-1.952;2023-12-20T18:14:40;10.20;99.90
66128;DHT22;52925;52.436;-1.952;2023-12-20T18:16:04;10.20;99.90
66128;DHT22;52925;52.436;-1.952;2023-12-20T18:17:28;10.20;99.90
66128;DHT22;52925;52.436;-1.952;2023-12-20T18:18:50;10.20;99.90
66128;DHT22;52925;52.436;-1.952;2023-12-20T18:20:10;10.20;99.90
66128;DHT22;52925;52.436;-1.952;2023-12-20T18:21:32;10.20;99.90
66128;DHT22;52925;52.436;-1.952;2023-12-20T18:22:53;10.30;99.90
66128;DHT22;52925;52.436;-1.952;2023-12-20T18:24:15;10.20;99.90
66128;DHT22;52925;52.436;-1.952;2023-12-20T18:25:34;10.20;99.90
66128;DHT22;52925;52.436;-1.952;2023-12-20T18:26:56;10.20;99.90
66128;DHT22;52925;52.436;-1.952;2023-12-20T18:28:15;10.20;99.90
66128;DHT22;52925;52.436;-1.952;2023-12-20T18:29:37;10.20;99.90
66128;DHT22;52925;52.436;-1.952;2023-12-20T18:30:57;10.20;99.90
66128;DHT22;52925;52.436;-1.952;2023-12-20T18:32:18;10.20;99.90
66128;DHT22;52925;52.436;-1.952;2023-12-20T18:33:39;10.10;99.90
66128;DHT22;52925;52.436;-1.952;2023-12-20T18:35:00;10.20;99.90
66128;DHT22;52925;52.436;-1.952;2023-12-20T18:36:19;10.20;99.90
66128;DHT22;52925;52.436;-1.952;2023-12-20T18:37:41;10.20;99.90
66128;DHT22;52925;52.436;-1.952;2023-12-20T18:39:02;10.10;99.90
66128;DHT22;52925;52.436;-1.952;2023-12-20T18:40:24;10.20;99.90
66128;DHT22;52925;52.436;-1.952;2023-12-20T18:41:46;10.20;99.90
66128;DHT22;52925;52.436;-1.952;2023-12-20T18:43:10;10.20;99.90
66128;DHT22;52925;52.436;-1.952;2023-12-20T18:44:30;10.20;99.90
66128;DHT22;52925;52.436;-1.952;2023-12-20T18:45:51;10.20;99.90
66128;DHT22;52925;52.436;-1.952;2023-12-20T18:47:11;10.30;99.90
66128;DHT22;52925;52.436;-1.952;2023-12-20T18:48:32;10.30;99.90
66128;DHT22;52925;52.436;-1.952;2023-12-20T18:49:53;10.30;99.90
66128;DHT22;52925;52.436;-1.952;2023-12-20T18:51:14;10.20;99.90
66128;DHT22;52925;52.436;-1.952;2023-12-20T18:52:34;10.20;99.90
66128;DHT22;52925;52.436;-1.952;2023-12-20T18:53:55;10.30;99.90
66128;DHT22;52925;52.436;-1.952;2023-12-20T18:55:16;10.30;99.90
66128;DHT22;52925;52.436;-1.952;2023-12-20T18:56:38;10.30;99.90
66128;DHT22;52925;52.436;-1.952;2023-12-20T18:57:59;10.30;99.90
66128;DHT22;52925;52.436;-1.952;2023-12-20T18:59:20;10.30;99.90
66128;DHT22;52925;52.436;-1.952;2023-12-20T19:00:41;10.30;99.90
66128;DHT22;52925;52.436;-1.952;2023-12-20T19:02:02;10.30;99.90
66128;DHT22;52925;52.436;-1.952;2023-12-20T19:03:22;10.30;99.90
66128;DHT22;52925;52.436;-1.952;2023-12-20T19:04:43;10.20;99.90
66128;DHT22;52925;52.436;-1.952;2023-12-20T19:06:04;10.20;99.90
66128;DHT22;52925;52.436;-1.952;2023-12-20T19:07:25;10.20;99.90
66128;DHT22;52925;52.436;-1.952;2023-12-20T19:08:44;10.20;99.90
66128;DHT22;52925;52.436;-1.952;2023-12-20T19:10:09;10.20;99.90
66128;DHT22;52925;52.436;-1.952;2023-12-20T19:11:31;10.20;99.90
66128;DHT22;52925;52.436;-1.952;2023-12-20T19:12:53;10.30;99.90
66128;DHT22;52925;52.436;-1.952;2023-12-20T19:14:12;10.20;99.90
66128;DHT22;52925;52.436;-1.952;2023-12-20T19:15:33;10.20;99.90
66128;DHT22;52925;52.436;-1.952;2023-12-20T19:16:53;10.20;99.90
66128;DHT22;52925;52.436;-1.952;2023-12-20T19:18:18;10.20;99.90
66128;DHT22;52925;52.436;-1.952;2023-12-20T19:19:38;10.20;99.90
66128;DHT22;52925;52.436;-1.952;2023-12-20T19:20:59;10.30;99.90
66128;DHT22;52925;52.436;-1.952;2023-12-20T19:22:19;10.20;99.90
66128;DHT22;52925;52.436;-1.952;2023-12-20T19:23:40;10.20;99.90
66128;DHT22;52925;52.436;-1.952;2023-12-20T19:25:03;10.20;99.90
66128;DHT22;52925;52.436;-1.952;2023-12-20T19:26:27;10.30;99.90
66128;DHT22;52925;52.436;-1.952;2023-12-20T19:27:48;10.30;99.90
66128;DHT22;52925;52.436;-1.952;2023-12-20T19:29:09;10.30;99.90
66128;DHT22;52925;52.436;-1.952;2023-12-20T19:30:29;10.30;99.90
66128;DHT22;52925;52.436;-1.952;2023-12-20T19:31:50;10.30;99.90
66128;DHT22;52925;52.436;-1.952;2023-12-20T19:33:12;10.30;99.90
66128;DHT22;52925;52.436;-1.952;2023-12-20T19:34:32;10.30;99.90
66128;DHT22;52925;52.436;-1.952;2023-12-20T19:35:52;10.30;99.90
66128;DHT22;52925;52.436;-1.952;2023-12-20T19:37:13;10.20;99.90
66128;DHT22;52925;52.436;-1.952;2023-12-20T19:38:34;10.20;99.90
66128;DHT22;52925;52.436;-1.952;2023-12-20T19:39:56;10.20;99.90
66128;DHT22;52925;52.436;-1.952;2023-12-20T19:41:18;10.20;99.90
66128;DHT22;52925;52.436;-1.952;2023-12-20T19:42:39;10.20;99.90
66128;DHT22;52925;52.436;-1.952;2023-12-20T19:44:00;10.20;99.90
66128;DHT22;52925;52.436;-1.952;2023-12-20T19:45:22;10.20;99.90
66128;DHT22;52925;52.436;-1.952;2023-12-20T19:46:42;10.20;99.90
66128;DHT22;52925;52.436;-1.952;2023-12-20T19:48:04;10.30;99.90
66128;DHT22;52925;52.436;-1.952;2023-12-20T19:49:24;10.20;99.90
66128;DHT22;52925;52.436;-1.952;2023-12-20T19:50:45;10.30;99.90
66128;DHT22;52925;52.436;-1.952;2023-12-20T19:52:07;10.20;99.90
66128;DHT22;52925;52.436;-1.952;2023-12-20T19:53:28;10.20;99.90
66128;DHT22;52925;52.436;-1.952;2023-12-20T19:54:48;10.30;99.90
66128;DHT22;52925;52.436;-1.952;2023-12-20T19:56:09;10.30;99.90
66128;DHT22;52925;52.436;-1.952;2023-12-20T19:57:29;10.30;99.90
66128;DHT22;52925;52.436;-1.952;2023-12-20T19:58:51;10.30;99.90
66128;DHT22;52925;52.436;-1.952;2023-12-20T20:00:15;10.30;99.90
66128;DHT22;52925;52.436;-1.952;2023-12-20T20:01:36;10.30;99.90
66128;DHT22;52925;52.436;-1.952;2023-12-20T20:02:59;10.30;99.90
66128;DHT22;52925;52.436;-1.952;2023-12-20T20:04:21;10.30;99.90
66128;DHT22;52925;52.436;-1.952;2023-12-20T20:05:42;10.30;99.90
66128;DHT22;52925;52.436;-1.952;2023-12-20T20:07:03;10.30;99.90
66128;DHT22;52925;52.436;-1.952;2023-12-20T20:08:28;10.30;99.90
66128;DHT22;52925;52.436;-1.952;2023-12-20T20:09:49;10.30;99.90
66128;DHT22;52925;52.436;-1.952;2023-12-20T20:11:09;10.40;99.90
66128;DHT22;52925;52.436;-1.952;2023-12-20T20:12:30;10.30;99.90
66128;DHT22;52925;52.436;-1.952;2023-12-20T20:13:52;10.30;99.90
66128;DHT22;52925;52.436;-1.952;2023-12-20T20:15:17;10.30;99.90
66128;DHT22;52925;52.436;-1.952;2023-12-20T20:16:37;10.30;99.90
66128;DHT22;52925;52.436;-1.952;2023-12-20T20:17:57;10.30;99.90
66128;DHT22;52925;52.436;-1.952;2023-12-20T20:19:17;10.30;99.90
66128;DHT22;52925;52.436;-1.952;2023-12-20T20:20:38;10.30;99.90
66128;DHT22;52925;52.436;-1.952;2023-12-20T20:21:58;10.30;99.90
66128;DHT22;52925;52.436;-1.952;2023-12-20T20:23:19;10.40;99.90
66128;DHT22;52925;52.436;-1.952;2023-12-20T20:24:39;10.40;99.90
66128;DHT22;52925;52.436;-1.952;2023-12-20T20:26:00;10.40;99.90
66128;DHT22;52925;52.436;-1.952;2023-12-20T20:27:20;10.40;99.90
66128;DHT22;52925;52.436;-1.952;2023-12-20T20:28:41;10.40;99.90
66128;DHT22;52925;52.436;-1.952;2023-12-20T20:30:01;10.40;99.90
66128;DHT22;52925;52.436;-1.952;2023-12-20T20:31:24;10.30;99.90
66128;DHT22;52925;52.436;-1.952;2023-12-20T20:32:44;10.30;99.90
66128;DHT22;52925;52.436;-1.952;2023-12-20T20:34:05;10.30;99.90
66128;DHT22;52925;52.436;-1.952;2023-12-20T20:35:25;10.40;99.90
66128;DHT22;52925;52.436;-1.952;2023-12-20T20:36:46;10.40;99.90
66128;DHT22;52925;52.436;-1.952;2023-12-20T20:38:06;10.40;99.90
66128;DHT22;52925;52.436;-1.952;2023-12-20T20:39:26;10.40;99.90
66128;DHT22;52925;52.436;-1.952;2023-12-20T20:40:46;10.40;99.90
66128;DHT22;52925;52.436;-1.952;2023-12-20T20:42:08;10.40;99.90
66128;DHT22;52925;52.436;-1.952;2023-12-20T20:43:28;10.40;99.90
66128;DHT22;52925;52.436;-1.952;2023-12-20T20:44:49;10.40;99.90
66128;DHT22;52925;52.436;-1.952;2023-12-20T20:46:09;10.40;99.90
66128;DHT22;52925;52.436;-1.952;2023-12-20T20:47:32;10.40;99.90
66128;DHT22;52925;52.436;-1.952;2023-12-20T20:48:51;10.40;99.90
66128;DHT22;52925;52.436;-1.952;2023-12-20T20:50:13;10.40;99.90
66128;DHT22;52925;52.436;-1.952;2023-12-20T20:51:33;10.40;99.90
66128;DHT22;52925;52.436;-1.952;2023-12-20T20:52:54;10.40;99.90
66128;DHT22;52925;52.436;-1.952;2023-12-20T20:54:13;10.40;99.90
66128;DHT22;52925;52.436;-1.952;2023-12-20T20:55:35;10.40;99.90
66128;DHT22;52925;52.436;-1.952;2023-12-20T20:56:54;10.40;99.90
66128;DHT22;52925;52.436;-1.952;2023-12-20T20:58:16;10.50;99.90
66128;DHT22;52925;52.436;-1.952;2023-12-20T20:59:35;10.40;99.90
66128;DHT22;52925;52.436;-1.952;2023-12-20T21:00:57;10.40;99.90
66128;DHT22;52925;52.436;-1.952;2023-12-20T21:02:17;10.50;99.90
66128;DHT22;52925;52.436;-1.952;2023-12-20T21:03:40;10.50;99.90
66128;DHT22;52925;52.436;-1.952;2023-12-20T21:05:00;10.50;99.90
66128;DHT22;52925;52.436;-1.952;2023-12-20T21:06:21;10.50;99.90
66128;DHT22;52925;52.436;-1.952;2023-12-20T21:07:41;10.40;99.90
66128;DHT22;52925;52.436;-1.952;2023-12-20T21:09:04;10.40;99.90
66128;DHT22;52925;52.436;-1.952;2023-12-20T21:10:24;10.40;99.90
66128;DHT22;52925;52.436;-1.952;2023-12-20T21:11:45;10.40;99.90
66128;DHT22;52925;52.436;-1.952;2023-12-20T21:13:05;10.40;99.90
66128;DHT22;52925;52.436;-1.952;2023-12-20T21:14:26;10.50;99.90
66128;DHT22;52925;52.436;-1.952;2023-12-20T21:15:46;10.50;99.90
66128;DHT22;52925;52.436;-1.952;2023-12-20T21:17:07;10.40;99.90
66128;DHT22;52925;52.436;-1.952;2023-12-20T21:18:26;10.40;99.90
66128;DHT22;52925;52.436;-1.952;2023-12-20T21:19:49;10.40;99.90
66128;DHT22;52925;52.436;-1.952;2023-12-20T21:21:10;10.40;99.90
66128;DHT22;52925;52.436;-1.952;2023-12-20T21:22:34;10.40;99.90
66128;DHT22;52925;52.436;-1.952;2023-12-20T21:23:54;10.40;99.90
66128;DHT22;52925;52.436;-1.952;2023-12-20T21:25:16;10.40;99.90
66128;DHT22;52925;52.436;-1.952;2023-12-20T21:26:37;10.40;99.90
66128;DHT22;52925;52.436;-1.952;2023-12-20T21:27:58;10.40;99.90
66128;DHT22;52925;52.436;-1.952;2023-12-20T21:29:18;10.40;99.90
66128;DHT22;52925;52.436;-1.952;2023-12-20T21:30:40;10.40;99.90
66128;DHT22;52925;52.436;-1.952;2023-12-20T21:32:00;10.40;99.90
66128;DHT22;52925;52.436;-1.952;2023-12-20T21:33:21;10.40;99.90
66128;DHT22;52925;52.436;-1.952;2023-12-20T21:34:41;10.40;99.90
66128;DHT22;52925;52.436;-1.952;2023-12-20T21:36:05;10.40;99.90
66128;DHT22;52925;52.436;-1.952;2023-12-20T21:37:25;10.40;99.90
66128;DHT22;52925;52.436;-1.952;2023-12-20T21:38:45;10.40;99.90
66128;DHT22;52925;52.436;-1.952;2023-12-20T21:40:06;10.40;99.90
66128;DHT22;52925;52.436;-1.952;2023-12-20T21:41:28;10.40;99.90
66128;DHT22;52925;52.436;-1.952;2023-12-20T21:42:48;10.40;99.90
66128;DHT22;52925;52.436;-1.952;2023-12-20T21:44:10;10.30;99.90
66128;DHT22;52925;52.436;-1.952;2023-12-20T21:45:29;10.40;99.90
66128;DHT22;52925;52.436;-1.952;2023-12-20T21:46:50;10.40;99.90
66128;DHT22;52925;52.436;-1.952;2023-12-20T21:48:10;10.40;99.90
66128;DHT22;52925;52.436;-1.952;2023-12-20T21:49:31;10.40;99.90
66128;DHT22;52925;52.436;-1.952;2023-12-20T21:50:51;10.40;99.90
66128;DHT22;52925;52.436;-1.952;2023-12-20T21:52:13;10.40;99.90
66128;DHT22;52925;52.436;-1.952;2023-12-20T21:53:34;10.40;99.90
66128;DHT22;52925;52.436;-1.952;2023-12-20T21:54:54;10.40;99.90
66128;DHT22;52925;52.436;-1.952;2023-12-20T21:56:14;10.40;99.90
66128;DHT22;52925;52.436;-1.952;2023-12-20T21:57:35;10.40;99.90
66128;DHT22;52925;52.436;-1.952;2023-12-20T21:58:55;10.40;99.90
66128;DHT22;52925;52.436;-1.952;2023-12-20T22:00:17;10.40;99.90
66128;DHT22;52925;52.436;-1.952;2023-12-20T22:01:40;10.40;99.90
66128;DHT22;52925;52.436;-1.952;2023-12-20T22:03:02;10.30;99.90
66128;DHT22;52925;52.436;-1.952;2023-12-20T22:04:21;10.30;99.90
66128;DHT22;52925;52.436;-1.952;2023-12-20T22:05:42;10.40;99.90
66128;DHT22;52925;52.436;-1.952;2023-12-20T22:07:03;10.40;99.90
66128;DHT22;52925;52.436;-1.952;2023-12-20T22:08:25;10.40;99.90
66128;DHT22;52925;52.436;-1.952;2023-12-20T22:09:45;10.40;99.90
66128;DHT22;52925;52.436;-1.952;2023-12-20T22:11:06;10.40;99.90
66128;DHT22;52925;52.436;-1.952;2023-12-20T22:12:27;10.40;99.90
66128;DHT22;52925;52.436;-1.952;2023-12-20T22:13:49;10.50;99.90
66128;DHT22;52925;52.436;-1.952;2023-12-20T22:15:09;10.40;99.90
66128;DHT22;52925;52.436;-1.952;2023-12-20T22:16:30;10.40;99.90
66128;DHT22;52925;52.436;-1.952;2023-12-20T22:17:50;10.40;99.90
66128;DHT22;52925;52.436;-1.952;2023-12-20T22:19:10;10.50;99.90
66128;DHT22;52925;52.436;-1.952;2023-12-20T22:20:30;10.50;99.90
66128;DHT22;52925;52.436;-1.952;2023-12-20T22:21:52;10.50;99.90
66128;DHT22;52925;52.436;-1.952;2023-12-20T22:23:12;10.50;99.90
66128;DHT22;52925;52.436;-1.952;2023-12-20T22:24:35;10.50;99.90
66128;DHT22;52925;52.436;-1.952;2023-12-20T22:25:54;10.50;99.90
66128;DHT22;52925;52.436;-1.952;2023-12-20T22:27:15;10.50;99.90
66128;DHT22;52925;52.436;-1.952;2023-12-20T22:28:35;10.50;99.90
66128;DHT22;52925;52.436;-1.952;2023-12-20T22:29:56;10.50;99.90
66128;DHT22;52925;52.436;-1.952;2023-12-20T22:31:16;10.50;99.90
66128;DHT22;52925;52.436;-1.952;2023-12-20T22:32:37;10.50;99.90
66128;DHT22;52925;52.436;-1.952;2023-12-20T22:33:57;10.50;99.90
66128;DHT22;52925;52.436;-1.952;2023-12-20T22:35:19;10.50;99.90
66128;DHT22;52925;52.436;-1.952;2023-12-20T22:36:39;10.50;99.90
66128;DHT22;52925;52.436;-1.952;2023-12-20T22:38:00;10.50;99.90
66128;DHT22;52925;52.436;-1.952;2023-12-20T22:39:21;10.50;99.90
66128;DHT22;52925;52.436;-1.952;2023-12-20T22:40:44;10.50;99.90
66128;DHT22;52925;52.436;-1.952;2023-12-20T22:42:04;10.50;99.90
66128;DHT22;52925;52.436;-1.952;2023-12-20T22:43:26;10.40;99.90
66128;DHT22;52925;52.436;-1.952;2023-12-20T22:44:46;10.40;99.90
66128;DHT22;52925;52.436;-1.952;2023-12-20T22:46:11;10.50;99.90
66128;DHT22;52925;52.436;-1.952;2023-12-20T22:47:31;10.50;99.90
66128;DHT22;52925;52.436;-1.952;2023-12-20T22:48:52;10.50;99.90
66128;DHT22;52925;52.436;-1.952;2023-12-20T22:50:12;10.50;99.90
66128;DHT22;52925;52.436;-1.952;2023-12-20T22:51:33;10.50;99.90
66128;DHT22;52925;52.436;-1.952;2023-12-20T22:52:53;10.50;99.90
66128;DHT22;52925;52.436;-1.952;2023-12-20T22:54:15;10.50;99.90
66128;DHT22;52925;52.436;-1.952;2023-12-20T22:55:35;10.50;99.90
66128;DHT22;52925;52.436;-1.952;2023-12-20T22:56:57;10.50;99.90
66128;DHT22;52925;52.436;-1.952;2023-12-20T22:58:17;10.50;99.90
66128;DHT22;52925;52.436;-1.952;2023-12-20T22:59:38;10.50;99.90
66128;DHT22;52925;52.436;-1.952;2023-12-20T23:00:58;10.50;99.90
66128;DHT22;52925;52.436;-1.952;2023-12-20T23:02:20;10.50;99.90
66128;DHT22;52925;52.436;-1.952;2023-12-20T23:03:39;10.50;99.90
66128;DHT22;52925;52.436;-1.952;2023-12-20T23:05:00;10.40;99.90
66128;DHT22;52925;52.436;-1.952;2023-12-20T23:06:20;10.50;99.90
66128;DHT22;52925;52.436;-1.952;2023-12-20T23:07:40;10.50;99.90
66128;DHT22;52925;52.436;-1.952;2023-12-20T23:09:00;10.50;99.90
66128;DHT22;52925;52.436;-1.952;2023-12-20T23:10:22;10.50;99.90
66128;DHT22;52925;52.436;-1.952;2023-12-20T23:11:45;10.50;99.90
66128;DHT22;52925;52.436;-1.952;2023-12-20T23:13:08;10.50;99.90
66128;DHT22;52925;52.436;-1.952;2023-12-20T23:14:28;10.50;99.90
